createdAt,value
2023-04-08T00:00:24.403Z,58.37
2023-04-08T00:02:53.873Z,58.10
2023-04-08T00:05:21.992Z,58.72
2023-04-08T00:07:49.967Z,58.99
2023-04-08T00:10:18.018Z,59.27
2023-04-08T00:12:46.032Z,58.88
2023-04-08T00:15:13.958Z,60.09
2023-04-08T00:17:42.929Z,61.20
2023-04-08T00:20:12.762Z,61.79
2023-04-08T00:22:40.772Z,61.20
2023-04-08T00:25:09.796Z,60.59
2023-04-08T00:27:37.740Z,60.88
2023-04-08T00:30:06.813Z,61.02
2023-04-08T00:32:34.811Z,60.86
2023-04-08T00:35:02.777Z,61.34
2023-04-08T00:37:32.817Z,62.36
2023-04-08T00:40:00.754Z,61.82
2023-04-08T00:42:30.782Z,61.47
2023-04-08T00:44:58.760Z,60.79
2023-04-08T00:47:26.933Z,61.28
2023-04-08T00:49:54.981Z,62.31
2023-04-08T00:52:23.014Z,61.59
2023-04-08T00:54:52.398Z,61.63
2023-04-08T00:57:20.409Z,61.18
2023-04-08T00:59:48.352Z,64.05
2023-04-08T01:02:23.139Z,65.43
2023-04-08T01:04:57.108Z,65.59
2023-04-08T01:07:29.370Z,66.26
2023-04-08T01:10:03.142Z,66.50
2023-04-08T01:12:33.023Z,66.51
2023-04-08T01:15:04.696Z,68.06
2023-04-08T01:17:33.736Z,69.28
2023-04-08T01:20:04.470Z,70.94
2023-04-08T01:22:42.656Z,72.24
2023-04-08T01:25:17.819Z,72.69
2023-04-08T01:27:49.538Z,73.34
2023-04-08T01:30:20.437Z,74.69
2023-04-08T01:32:49.138Z,76.63
2023-04-08T01:35:17.494Z,77.71
2023-04-08T01:37:48.032Z,78.88
2023-04-08T01:40:17.957Z,79.54
2023-04-08T01:42:49.636Z,79.59
2023-04-08T01:45:18.631Z,81.16
2023-04-08T01:47:48.403Z,81.15
2023-04-08T01:50:17.590Z,81.00
2023-04-08T01:52:46.607Z,81.38
2023-04-08T01:55:14.858Z,81.68
2023-04-08T01:57:49.029Z,81.86
2023-04-08T02:00:22.171Z,82.89
2023-04-08T02:02:52.017Z,82.92
2023-04-08T02:05:20.372Z,83.27
2023-04-08T02:07:48.963Z,83.84
2023-04-08T02:10:17.491Z,84.24
2023-04-08T02:12:45.844Z,85.07
2023-04-08T02:15:14.975Z,85.46
2023-04-08T02:17:47.459Z,85.85
2023-04-08T02:20:20.278Z,86.01
2023-04-08T02:22:54.487Z,85.15
2023-04-08T02:25:25.954Z,85.70
2023-04-08T02:27:55.772Z,86.72
2023-04-08T02:30:24.733Z,86.03
2023-04-08T02:32:55.925Z,86.44
2023-04-08T02:35:24.700Z,87.28
2023-04-08T02:37:53.465Z,86.70
2023-04-08T02:40:26.313Z,87.31
2023-04-08T02:42:55.078Z,87.51
2023-04-08T02:45:23.496Z,88.58
2023-04-08T02:47:51.556Z,88.47
2023-04-08T02:50:20.906Z,88.07
2023-04-08T02:52:48.834Z,89.68
2023-04-08T02:55:16.821Z,90.56
2023-04-08T02:57:44.925Z,90.39
2023-04-08T03:00:14.276Z,91.37
2023-04-08T03:02:42.553Z,90.89
2023-04-08T03:05:11.264Z,91.25
2023-04-08T03:07:40.622Z,90.21
2023-04-08T03:10:09.694Z,90.24
2023-04-08T03:12:37.700Z,91.09
2023-04-08T03:15:06.457Z,91.01
2023-04-08T03:17:34.760Z,91.30
2023-04-08T03:20:04.842Z,91.31
2023-04-08T03:22:32.990Z,92.90
2023-04-08T03:25:02.264Z,93.50
2023-04-08T03:27:30.409Z,94.49
2023-04-08T03:29:58.847Z,95.08
2023-04-08T03:32:26.929Z,95.21
2023-04-08T03:34:54.873Z,95.27
2023-04-08T03:37:22.795Z,96.23
2023-04-08T03:39:50.763Z,96.91
2023-04-08T03:42:20.055Z,98.19
2023-04-08T03:44:48.065Z,97.55
2023-04-08T03:47:15.970Z,98.17
2023-04-08T03:49:43.935Z,97.43
2023-04-08T03:52:11.807Z,97.59
2023-04-08T03:54:39.752Z,97.50
2023-04-08T03:57:07.686Z,97.69
2023-04-08T03:59:37.573Z,97.42
2023-04-08T04:02:05.652Z,98.04
2023-04-08T04:04:33.889Z,98.19
2023-04-08T04:07:01.836Z,96.80
2023-04-08T04:09:29.805Z,97.86
2023-04-08T04:11:57.810Z,97.66
2023-04-08T04:14:25.853Z,98.42
2023-04-08T04:16:55.129Z,97.63
2023-04-08T04:19:23.104Z,97.73
2023-04-08T04:21:51.367Z,98.47
2023-04-08T04:24:19.348Z,98.72
2023-04-08T04:26:47.516Z,99.10
2023-04-08T04:29:15.522Z,99.63
2023-04-08T04:31:43.553Z,99.86
2023-04-08T04:34:12.901Z,100.00
2023-04-08T04:36:40.894Z,99.79
2023-04-08T04:39:08.798Z,99.56
2023-04-08T04:41:40.525Z,99.77
2023-04-08T04:44:08.482Z,98.81
2023-04-08T04:46:36.414Z,99.55
2023-04-08T04:49:04.331Z,99.86
2023-04-08T04:51:34.227Z,100.00
2023-04-08T04:54:02.257Z,100.00
2023-04-08T04:56:30.320Z,100.00
2023-04-08T04:58:58.220Z,99.48
2023-04-08T05:01:26.203Z,99.41
2023-04-08T05:03:54.147Z,99.95
2023-04-08T05:06:22.100Z,100.00
2023-04-08T05:08:52.032Z,99.40
2023-04-08T05:11:21.843Z,98.57
2023-04-08T05:13:49.920Z,98.23
2023-04-08T05:16:18.033Z,98.23
2023-04-08T05:18:46.246Z,98.11
2023-04-08T05:21:14.217Z,97.27
2023-04-08T05:23:42.191Z,97.31
2023-04-08T05:26:11.530Z,95.55
2023-04-08T05:28:39.465Z,95.41
2023-04-08T05:31:07.508Z,96.25
2023-04-08T05:33:35.409Z,96.28
2023-04-08T05:36:03.382Z,96.62
2023-04-08T05:38:31.424Z,96.71
2023-04-08T05:40:59.313Z,97.43
2023-04-08T05:43:28.630Z,97.88
2023-04-08T05:45:56.505Z,96.09
2023-04-08T05:48:24.436Z,95.17
2023-04-08T05:50:52.443Z,95.51
2023-04-08T05:53:20.524Z,96.28
2023-04-08T05:55:48.413Z,95.96
2023-04-08T05:58:16.522Z,94.61
2023-04-08T06:00:46.035Z,92.58
2023-04-08T06:03:14.186Z,93.43
2023-04-08T06:05:42.198Z,92.56
2023-04-08T06:08:10.033Z,92.04
2023-04-08T06:10:38.298Z,92.73
2023-04-08T06:13:06.227Z,91.41
2023-04-08T06:15:34.165Z,90.14
2023-04-08T06:18:03.416Z,89.16
2023-04-08T06:20:31.693Z,87.24
2023-04-08T06:22:59.609Z,87.12
2023-04-08T06:25:27.618Z,89.33
2023-04-08T06:27:55.747Z,88.50
2023-04-08T06:30:23.949Z,86.81
2023-04-08T06:32:51.873Z,86.17
2023-04-08T06:35:21.328Z,84.45
2023-04-08T06:37:49.342Z,82.65
2023-04-08T06:40:17.408Z,82.06
2023-04-08T06:42:45.719Z,80.92
2023-04-08T06:45:13.649Z,78.51
2023-04-08T06:47:41.670Z,79.58
2023-04-08T06:50:10.374Z,79.09
2023-04-08T06:52:39.652Z,77.18
2023-04-08T06:55:08.097Z,77.05
2023-04-08T06:57:35.983Z,74.18
2023-04-08T07:00:04.060Z,72.62
2023-04-08T07:02:32.037Z,73.36
2023-04-08T07:04:59.993Z,73.72
2023-04-08T07:07:27.890Z,74.12
2023-04-08T07:09:57.189Z,77.42
2023-04-08T07:12:25.165Z,76.93
2023-04-08T07:14:53.228Z,73.25
2023-04-08T07:17:21.274Z,72.41
2023-04-08T07:19:49.967Z,72.83
2023-04-08T07:22:18.505Z,70.71
2023-04-08T07:24:49.781Z,69.28
2023-04-08T07:27:19.213Z,68.09
2023-04-08T07:29:47.099Z,64.79
2023-04-08T07:32:14.996Z,67.99
2023-04-08T07:34:42.912Z,67.23
2023-04-08T07:37:10.854Z,69.52
2023-04-08T07:39:38.706Z,72.84
2023-04-08T07:42:06.797Z,70.81
2023-04-08T07:44:36.315Z,67.58
2023-04-08T07:47:04.292Z,65.38
2023-04-08T07:49:32.206Z,62.80
2023-04-08T07:52:00.257Z,61.63
2023-04-08T07:54:28.110Z,62.95
2023-04-08T07:56:57.035Z,64.17
2023-04-08T07:59:25.032Z,63.82
2023-04-08T08:01:54.438Z,62.76
2023-04-08T08:04:25.874Z,61.89
2023-04-08T08:06:54.113Z,61.86
2023-04-08T08:09:22.029Z,63.00
2023-04-08T08:11:49.878Z,62.47
2023-04-08T08:14:17.799Z,61.78
2023-04-08T08:16:45.839Z,59.79
2023-04-08T08:19:15.173Z,60.51
2023-04-08T08:21:43.118Z,62.24
2023-04-08T08:24:11.380Z,60.92
2023-04-08T08:26:39.399Z,63.53
2023-04-08T08:29:08.951Z,60.69
2023-04-08T08:31:36.969Z,61.27
2023-04-08T08:34:04.900Z,58.25
2023-04-08T08:36:34.933Z,60.24
2023-04-08T08:39:03.028Z,61.80
2023-04-08T08:41:36.044Z,59.53
2023-04-08T08:44:06.316Z,56.99
2023-04-08T08:46:35.433Z,56.18
2023-04-08T08:49:03.810Z,56.17
2023-04-08T08:51:32.885Z,59.03
2023-04-08T08:54:05.154Z,58.76
2023-04-08T08:56:35.065Z,57.76
2023-04-08T08:59:02.961Z,57.38
2023-04-08T09:01:32.661Z,55.06
2023-04-08T09:04:12.403Z,51.94
2023-04-08T09:06:41.064Z,52.52
2023-04-08T09:09:13.473Z,50.67
2023-04-08T09:11:43.140Z,50.43
2023-04-08T09:14:21.782Z,50.84
2023-04-08T09:16:49.940Z,51.70
2023-04-08T09:19:17.974Z,54.43
2023-04-08T09:21:46.343Z,52.57
2023-04-08T09:24:32.005Z,55.04
2023-04-08T09:27:00.189Z,52.48
2023-04-08T09:29:32.268Z,55.37
2023-04-08T09:32:03.072Z,58.09
2023-04-08T09:34:34.270Z,58.19
2023-04-08T09:37:02.491Z,55.73
2023-04-08T09:39:32.419Z,51.54
2023-04-08T09:42:08.283Z,51.43
2023-04-08T09:44:38.941Z,51.95
2023-04-08T09:47:11.351Z,52.33
2023-04-08T09:49:45.009Z,49.97
2023-04-08T09:52:16.791Z,48.03
2023-04-08T09:54:55.896Z,48.49
2023-04-08T09:57:33.651Z,48.97
2023-04-08T10:00:06.654Z,49.83
2023-04-08T10:02:42.587Z,49.50
2023-04-08T10:05:14.641Z,50.93
2023-04-08T10:07:43.528Z,51.98
2023-04-08T10:10:13.178Z,50.95
2023-04-08T10:12:41.514Z,49.39
2023-04-08T10:15:26.974Z,50.75
2023-04-08T10:17:55.651Z,51.36
2023-04-08T10:20:42.559Z,51.63
2023-04-08T10:23:11.562Z,50.48
2023-04-08T10:25:42.540Z,49.39
2023-04-08T10:28:27.238Z,51.55
2023-04-08T10:30:56.694Z,51.08
2023-04-08T10:33:32.959Z,50.84
2023-04-08T10:36:04.500Z,52.97
2023-04-08T10:38:33.256Z,51.84
2023-04-08T10:41:02.625Z,51.30
2023-04-08T10:43:34.786Z,52.16
2023-04-08T10:46:02.838Z,53.37
2023-04-08T10:48:30.966Z,49.73
2023-04-08T10:51:00.242Z,49.75
2023-04-08T10:53:29.299Z,49.02
2023-04-08T10:56:07.800Z,48.51
2023-04-08T10:58:36.647Z,50.92
2023-04-08T11:01:06.825Z,51.79
2023-04-08T11:03:35.234Z,50.29
2023-04-08T11:06:03.963Z,50.08
2023-04-08T11:08:32.463Z,48.74
2023-04-08T11:11:01.661Z,49.54
2023-04-08T11:13:31.823Z,50.70
2023-04-08T11:16:00.693Z,52.14
2023-04-08T11:18:29.451Z,49.10
2023-04-08T11:20:59.641Z,48.91
2023-04-08T11:23:28.360Z,49.83
2023-04-08T11:25:56.718Z,48.04
2023-04-08T11:28:24.822Z,48.89
2023-04-08T11:30:55.932Z,48.61
2023-04-08T11:33:26.428Z,48.41
2023-04-08T11:35:55.058Z,49.02
2023-04-08T11:38:24.645Z,50.35
2023-04-08T11:40:55.639Z,51.53
2023-04-08T11:43:23.821Z,51.09
2023-04-08T11:45:53.462Z,52.04
2023-04-08T11:48:21.442Z,52.58
2023-04-08T11:50:51.694Z,52.90
2023-04-08T11:53:20.809Z,54.04
2023-04-08T11:55:49.615Z,52.42
2023-04-08T11:58:17.673Z,52.07
2023-04-08T12:00:46.092Z,52.51
2023-04-08T12:03:15.864Z,52.17
2023-04-08T12:05:43.768Z,51.77
2023-04-08T12:08:11.760Z,52.02
2023-04-08T12:10:39.746Z,51.23
2023-04-08T12:13:07.808Z,52.54
2023-04-08T12:15:35.840Z,53.25
2023-04-08T12:18:03.814Z,53.37
2023-04-08T12:20:33.050Z,53.43
2023-04-08T12:23:01.008Z,53.44
2023-04-08T12:25:29.199Z,52.00
2023-04-08T12:27:57.124Z,51.51
2023-04-08T12:30:25.018Z,52.84
2023-04-08T12:32:55.304Z,51.46
2023-04-08T12:35:23.387Z,51.27
2023-04-08T12:37:52.662Z,51.61
2023-04-08T12:40:20.951Z,51.00
2023-04-08T12:42:48.898Z,50.98
2023-04-08T12:45:16.905Z,49.77
2023-04-08T12:47:44.918Z,49.73
2023-04-08T12:50:12.908Z,49.83
2023-04-08T12:52:40.821Z,48.98
2023-04-08T12:55:11.307Z,50.09
2023-04-08T12:57:39.176Z,50.87
2023-04-08T13:00:08.331Z,49.62
2023-04-08T13:02:36.276Z,50.07
2023-04-08T13:05:04.317Z,48.59
2023-04-08T13:07:33.572Z,48.62
2023-04-08T13:10:01.718Z,49.00
2023-04-08T13:12:32.143Z,50.21
2023-04-08T13:15:00.324Z,48.65
2023-04-08T13:17:28.465Z,49.28
2023-04-08T13:19:56.360Z,49.65
2023-04-08T13:22:24.385Z,49.38
2023-04-08T13:24:52.462Z,49.52
2023-04-08T13:27:20.652Z,49.64
2023-04-08T13:29:49.968Z,50.06
2023-04-08T13:32:17.946Z,48.67
2023-04-08T13:34:46.245Z,48.39
2023-04-08T13:37:14.209Z,49.16
2023-04-08T13:39:42.147Z,47.11
2023-04-08T13:42:10.074Z,48.24
2023-04-08T13:44:38.011Z,47.10
2023-04-08T13:47:07.352Z,48.03
2023-04-08T13:49:35.369Z,46.99
2023-04-08T13:52:03.289Z,47.67
2023-04-08T13:54:31.250Z,47.96
2023-04-08T13:56:59.171Z,48.09
2023-04-08T13:59:27.120Z,47.28
2023-04-08T14:01:55.395Z,49.35
2023-04-08T14:04:25.177Z,48.37
2023-04-08T14:06:53.320Z,48.48
2023-04-08T14:09:21.863Z,48.02
2023-04-08T14:11:49.869Z,47.04
2023-04-08T14:14:17.848Z,46.25
2023-04-08T14:16:46.505Z,44.30
2023-04-08T14:19:14.960Z,44.66
2023-04-08T14:21:44.372Z,45.92
2023-04-08T14:24:12.414Z,46.77
2023-04-08T14:26:40.993Z,47.46
2023-04-08T14:29:09.316Z,48.71
2023-04-08T14:31:37.391Z,48.19
2023-04-08T14:34:05.476Z,48.53
2023-04-08T14:36:33.803Z,48.64
2023-04-08T14:39:03.752Z,49.63
2023-04-08T14:41:31.754Z,48.71
2023-04-08T14:44:00.026Z,48.41
2023-04-08T14:46:29.058Z,49.41
2023-04-08T14:48:57.284Z,49.23
2023-04-08T14:51:25.337Z,49.62
2023-04-08T14:53:53.326Z,50.29
2023-04-08T14:56:22.790Z,51.05
2023-04-08T14:58:51.202Z,49.61
2023-04-08T15:01:19.475Z,49.54
2023-04-08T15:03:47.699Z,49.61
2023-04-08T15:06:17.838Z,50.20
2023-04-08T15:08:46.559Z,49.18
2023-04-08T15:11:14.552Z,49.17
2023-04-08T15:13:43.981Z,47.22
2023-04-08T15:16:12.053Z,47.41
2023-04-08T15:18:40.313Z,47.01
2023-04-08T15:21:08.370Z,47.22
2023-04-08T15:23:36.696Z,49.04
2023-04-08T15:26:04.725Z,47.83
2023-04-08T15:28:33.153Z,48.20
2023-04-08T15:31:02.885Z,48.18
2023-04-08T15:33:30.866Z,47.98
2023-04-08T15:36:03.262Z,47.58
2023-04-08T15:38:33.692Z,48.38
2023-04-08T15:41:01.890Z,48.33
2023-04-08T15:43:29.933Z,47.09
2023-04-08T15:45:57.918Z,47.71
2023-04-08T15:48:27.386Z,47.50
2023-04-08T15:50:55.363Z,47.39
2023-04-08T15:53:23.397Z,47.65
2023-04-08T15:55:51.616Z,47.87
2023-04-08T15:58:19.500Z,48.47
2023-04-08T16:00:48.821Z,49.06
2023-04-08T16:03:16.855Z,49.25
2023-04-08T16:05:46.395Z,49.45
2023-04-08T16:08:14.344Z,49.56
2023-04-08T16:10:42.348Z,50.52
2023-04-08T16:13:10.282Z,51.13
2023-04-08T16:15:38.289Z,50.95
2023-04-08T16:18:07.941Z,50.92
2023-04-08T16:20:38.396Z,50.93
2023-04-08T16:23:07.757Z,52.24
2023-04-08T16:25:35.807Z,51.83
2023-04-08T16:28:03.915Z,52.29
2023-04-08T16:30:31.984Z,52.03
2023-04-08T16:33:00.389Z,52.36
2023-04-08T16:35:28.606Z,52.15
2023-04-08T16:37:56.802Z,51.90
2023-04-08T16:40:26.288Z,51.88
2023-04-08T16:42:54.595Z,52.25
2023-04-08T16:45:22.646Z,51.71
2023-04-08T16:47:50.662Z,51.97
2023-04-08T16:50:18.825Z,52.27
2023-04-08T16:52:49.544Z,52.01
2023-04-08T16:55:17.822Z,52.30
2023-04-08T16:57:47.719Z,52.22
2023-04-08T17:00:18.069Z,52.24
2023-04-08T17:02:47.590Z,51.83
2023-04-08T17:05:15.825Z,52.47
2023-04-08T17:07:43.769Z,52.41
2023-04-08T17:10:12.079Z,52.30
2023-04-08T17:12:40.051Z,53.63
2023-04-08T17:15:10.954Z,53.31
2023-04-08T17:17:39.006Z,53.46
2023-04-08T17:20:08.563Z,53.49
2023-04-08T17:22:37.040Z,53.50
2023-04-08T17:25:05.795Z,54.15
2023-04-08T17:27:33.774Z,54.43
2023-04-08T17:30:01.796Z,53.91
2023-04-08T17:32:31.437Z,54.64
2023-04-08T17:34:59.392Z,54.82
2023-04-08T17:37:27.321Z,55.57
2023-04-08T17:39:55.295Z,57.90
2023-04-08T17:42:23.778Z,59.27
2023-04-08T17:44:52.869Z,61.73
2023-04-08T17:47:21.079Z,62.49
2023-04-08T17:49:50.431Z,65.88
2023-04-08T17:52:18.932Z,66.59
2023-04-08T17:54:46.900Z,67.70
2023-04-08T17:57:14.798Z,67.24
2023-04-08T17:59:42.813Z,68.53
2023-04-08T18:02:11.037Z,68.26
2023-04-08T18:04:39.089Z,68.27
2023-04-08T18:07:08.439Z,67.85
2023-04-08T18:09:36.390Z,68.72
2023-04-08T18:12:04.424Z,69.92
2023-04-08T18:14:32.403Z,70.00
2023-04-08T18:17:00.510Z,70.82
2023-04-08T18:19:28.461Z,70.07
2023-04-08T18:21:56.535Z,70.49
2023-04-08T18:24:26.058Z,70.84
2023-04-08T18:27:03.412Z,70.91
2023-04-08T18:29:32.160Z,70.23
2023-04-08T18:32:00.069Z,70.61
2023-04-08T18:34:28.137Z,71.09
2023-04-08T18:36:56.310Z,70.73
2023-04-08T18:39:25.677Z,71.28
2023-04-08T18:41:53.557Z,71.88
2023-04-08T18:44:21.549Z,72.16
2023-04-08T18:46:49.532Z,71.08
2023-04-08T18:49:17.517Z,71.30
2023-04-08T18:51:59.044Z,71.96
2023-04-08T18:54:30.908Z,71.88
2023-04-08T18:56:58.953Z,72.08
2023-04-08T18:59:28.460Z,71.50
2023-04-08T19:01:56.502Z,70.88
2023-04-08T19:04:24.698Z,69.66
2023-04-08T19:06:52.697Z,69.69
2023-04-08T19:09:20.699Z,69.29
2023-04-08T19:11:50.065Z,70.50
2023-04-08T19:14:18.477Z,70.45
2023-04-08T19:16:46.404Z,70.96
2023-04-08T19:19:14.656Z,70.73
2023-04-08T19:21:42.617Z,70.68
2023-04-08T19:24:10.687Z,71.37
2023-04-08T19:26:38.649Z,71.98
2023-04-08T19:29:09.422Z,71.88
2023-04-08T19:31:37.829Z,72.46
2023-04-08T19:34:06.053Z,73.15
2023-04-08T19:36:34.065Z,73.57
2023-04-08T19:39:03.567Z,73.46
2023-04-08T19:41:31.598Z,74.26
2023-04-08T19:43:59.473Z,74.47
2023-04-08T19:46:29.609Z,76.06
2023-04-08T19:48:59.021Z,75.94
2023-04-08T19:51:27.468Z,76.07
2023-04-08T19:53:55.464Z,75.52
2023-04-08T19:56:23.382Z,76.91
2023-04-08T19:58:51.945Z,78.01
2023-04-08T20:01:20.075Z,77.87
2023-04-08T20:03:52.321Z,78.61
2023-04-08T20:06:21.578Z,79.01
2023-04-08T20:08:50.866Z,79.71
2023-04-08T20:11:18.935Z,79.82
2023-04-08T20:13:47.683Z,80.73
2023-04-08T20:16:15.787Z,81.04
2023-04-08T20:18:43.921Z,82.30
2023-04-08T20:21:14.761Z,82.77
2023-04-08T20:23:44.490Z,83.09
2023-04-08T20:26:13.180Z,83.44
2023-04-08T20:28:41.508Z,83.85
2023-04-08T20:31:10.546Z,84.16
2023-04-08T20:33:43.589Z,84.37
2023-04-08T20:36:13.547Z,84.73
2023-04-08T20:38:42.634Z,85.22
2023-04-08T20:41:11.284Z,85.82
2023-04-08T20:43:39.540Z,86.32
2023-04-08T20:46:07.651Z,86.81
2023-04-08T20:48:36.146Z,86.67
2023-04-08T20:51:04.210Z,87.31
2023-04-08T20:53:34.575Z,86.98
2023-04-08T20:56:03.135Z,87.15
2023-04-08T20:58:31.143Z,87.83
2023-04-08T21:00:59.924Z,89.08
2023-04-08T21:03:28.374Z,88.78
2023-04-08T21:05:56.838Z,89.04
2023-04-08T21:08:24.877Z,89.06
2023-04-08T21:10:54.721Z,90.34
2023-04-08T21:13:22.742Z,90.07
2023-04-08T21:15:50.620Z,89.68
2023-04-08T21:18:18.549Z,90.39
2023-04-08T21:20:46.539Z,90.12
2023-04-08T21:23:15.000Z,89.59
2023-04-08T21:25:43.031Z,89.24
2023-04-08T21:28:12.365Z,90.03
2023-04-08T21:30:40.565Z,91.04
2023-04-08T21:33:08.891Z,91.29
2023-04-08T21:35:36.978Z,91.59
2023-04-08T21:38:04.969Z,91.18
2023-04-08T21:40:33.063Z,92.53
2023-04-08T21:43:01.068Z,92.27
2023-04-08T21:45:30.365Z,91.01
2023-04-08T21:47:58.478Z,90.50
2023-04-08T21:50:26.490Z,90.59
2023-04-08T21:52:54.487Z,91.14
2023-04-08T21:55:23.549Z,90.84
2023-04-08T21:57:51.535Z,90.59
2023-04-08T22:00:19.453Z,91.10
2023-04-08T22:02:48.809Z,91.33
2023-04-08T22:05:17.049Z,90.88
2023-04-08T22:07:45.058Z,90.73
2023-04-08T22:10:13.174Z,90.40
2023-04-08T22:12:41.128Z,90.02
2023-04-08T22:15:10.661Z,90.50
2023-04-08T22:17:38.577Z,91.39
2023-04-08T22:20:09.216Z,92.87
2023-04-08T22:22:37.081Z,93.42
2023-04-08T22:25:05.412Z,92.50
2023-04-08T22:27:33.485Z,91.96
2023-04-08T22:30:01.414Z,91.85
2023-04-08T22:32:29.427Z,92.01
2023-04-08T22:34:57.400Z,92.58
2023-04-08T22:37:26.730Z,93.15
2023-04-08T22:39:54.644Z,92.68
2023-04-08T22:42:22.561Z,92.80
2023-04-08T22:44:50.562Z,92.72
2023-04-08T22:47:18.558Z,92.41
2023-04-08T22:49:46.496Z,93.16
2023-04-08T22:52:14.433Z,93.30
2023-04-08T22:54:43.681Z,93.89
2023-04-08T22:57:11.590Z,93.43
2023-04-08T22:59:39.703Z,95.21
2023-04-08T23:02:07.776Z,96.22
2023-04-08T23:04:35.806Z,96.66
2023-04-08T23:07:03.799Z,96.17
2023-04-08T23:09:31.689Z,94.71
2023-04-08T23:12:01.478Z,93.91
2023-04-08T23:14:29.434Z,94.60
2023-04-08T23:16:57.385Z,94.32
2023-04-08T23:19:25.284Z,94.05
2023-04-08T23:21:53.187Z,95.02
2023-04-08T23:24:21.230Z,94.72
2023-04-08T23:26:49.369Z,94.15
2023-04-08T23:29:18.829Z,94.81
2023-04-08T23:31:46.791Z,94.90
2023-04-08T23:34:14.744Z,95.29
2023-04-08T23:36:42.725Z,95.55
2023-04-08T23:39:10.677Z,97.08
2023-04-08T23:41:38.549Z,96.38
2023-04-08T23:44:06.797Z,95.81
2023-04-08T23:46:36.222Z,96.57
2023-04-08T23:49:04.178Z,97.38
2023-04-08T23:51:32.225Z,96.70
2023-04-08T23:54:00.132Z,96.88
2023-04-08T23:56:28.048Z,96.61
2023-04-08T23:58:55.947Z,97.40
